sensor_id;sensor_type;location;lat;lon;timestamp;P1;durP1;ratioP1;P2;durP2;ratioP2
13580;SDS011;6861;46.170;7.222;2023-09-18T00:00:04;5.55;;;2.00;;
13580;SDS011;6861;46.170;7.222;2023-09-18T00:02:35;6.70;;;1.92;;
13580;SDS011;6861;46.170;7.222;2023-09-18T00:05:05;6.75;;;2.45;;
13580;SDS011;6861;46.170;7.222;2023-09-18T00:07:33;3.95;;;2.20;;
13580;SDS011;6861;46.170;7.222;2023-09-18T00:10:02;5.25;;;1.98;;
13580;SDS011;6861;46.170;7.222;2023-09-18T00:12:30;4.68;;;2.17;;
13580;SDS011;6861;46.170;7.222;2023-09-18T00:14:58;5.35;;;1.90;;
13580;SDS011;6861;46.170;7.222;2023-09-18T00:17:26;3.88;;;1.90;;
13580;SDS011;6861;46.170;7.222;2023-09-18T00:19:54;7.20;;;2.67;;
13580;SDS011;6861;46.170;7.222;2023-09-18T00:22:24;7.32;;;1.90;;
13580;SDS011;6861;46.170;7.222;2023-09-18T00:24:52;7.47;;;2.20;;
13580;SDS011;6861;46.170;7.222;2023-09-18T00:27:20;4.65;;;1.77;;
13580;SDS011;6861;46.170;7.222;2023-09-18T00:29:48;9.38;;;2.17;;
13580;SDS011;6861;46.170;7.222;2023-09-18T00:32:16;4.28;;;1.83;;
13580;SDS011;6861;46.170;7.222;2023-09-18T00:34:44;6.28;;;2.05;;
13580;SDS011;6861;46.170;7.222;2023-09-18T00:37:12;6.03;;;1.83;;
13580;SDS011;6861;46.170;7.222;2023-09-18T00:39:42;5.18;;;1.95;;
13580;SDS011;6861;46.170;7.222;2023-09-18T00:42:10;5.00;;;1.95;;
13580;SDS011;6861;46.170;7.222;2023-09-18T00:44:40;4.93;;;2.10;;
13580;SDS011;6861;46.170;7.222;2023-09-18T00:47:08;5.45;;;2.08;;
13580;SDS011;6861;46.170;7.222;2023-09-18T00:49:38;5.78;;;1.90;;
13580;SDS011;6861;46.170;7.222;2023-09-18T00:52:09;4.97;;;2.03;;
13580;SDS011;6861;46.170;7.222;2023-09-18T00:54:38;6.40;;;2.13;;
13580;SDS011;6861;46.170;7.222;2023-09-18T00:57:09;5.72;;;2.10;;
13580;SDS011;6861;46.170;7.222;2023-09-18T00:59:38;5.93;;;2.17;;
13580;SDS011;6861;46.170;7.222;2023-09-18T01:02:07;8.55;;;2.13;;
13580;SDS011;6861;46.170;7.222;2023-09-18T01:04:35;6.90;;;1.92;;
13580;SDS011;6861;46.170;7.222;2023-09-18T01:07:04;6.90;;;1.85;;
13580;SDS011;6861;46.170;7.222;2023-09-18T01:09:33;7.63;;;2.33;;
13580;SDS011;6861;46.170;7.222;2023-09-18T01:12:03;5.00;;;1.90;;
13580;SDS011;6861;46.170;7.222;2023-09-18T01:14:39;5.60;;;1.70;;
13580;SDS011;6861;46.170;7.222;2023-09-18T01:17:10;4.50;;;2.20;;
13580;SDS011;6861;46.170;7.222;2023-09-18T01:19:40;6.03;;;2.55;;
13580;SDS011;6861;46.170;7.222;2023-09-18T01:22:11;9.73;;;2.20;;
13580;SDS011;6861;46.170;7.222;2023-09-18T01:24:41;5.68;;;2.10;;
13580;SDS011;6861;46.170;7.222;2023-09-18T01:27:11;5.93;;;1.88;;
13580;SDS011;6861;46.170;7.222;2023-09-18T01:29:41;7.22;;;2.00;;
13580;SDS011;6861;46.170;7.222;2023-09-18T01:32:09;7.90;;;1.80;;
13580;SDS011;6861;46.170;7.222;2023-09-18T01:34:37;6.03;;;2.20;;
13580;SDS011;6861;46.170;7.222;2023-09-18T01:37:09;5.05;;;1.98;;
13580;SDS011;6861;46.170;7.222;2023-09-18T01:39:39;4.97;;;2.08;;
13580;SDS011;6861;46.170;7.222;2023-09-18T01:42:09;5.97;;;2.00;;
13580;SDS011;6861;46.170;7.222;2023-09-18T01:44:37;6.07;;;1.90;;
13580;SDS011;6861;46.170;7.222;2023-09-18T01:47:06;5.32;;;1.98;;
13580;SDS011;6861;46.170;7.222;2023-09-18T01:49:37;4.43;;;2.10;;
13580;SDS011;6861;46.170;7.222;2023-09-18T01:52:06;5.55;;;2.03;;
13580;SDS011;6861;46.170;7.222;2023-09-18T01:54:35;10.75;;;1.92;;
13580;SDS011;6861;46.170;7.222;2023-09-18T01:57:04;6.20;;;2.00;;
13580;SDS011;6861;46.170;7.222;2023-09-18T01:59:35;7.40;;;1.90;;
13580;SDS011;6861;46.170;7.222;2023-09-18T02:02:04;7.07;;;1.75;;
13580;SDS011;6861;46.170;7.222;2023-09-18T02:04:35;8.93;;;1.70;;
13580;SDS011;6861;46.170;7.222;2023-09-18T02:07:24;5.20;;;2.05;;
13580;SDS011;6861;46.170;7.222;2023-09-18T02:09:52;5.95;;;2.10;;
13580;SDS011;6861;46.170;7.222;2023-09-18T02:12:20;8.18;;;1.77;;
13580;SDS011;6861;46.170;7.222;2023-09-18T02:14:50;4.57;;;1.98;;
13580;SDS011;6861;46.170;7.222;2023-09-18T02:17:18;6.15;;;2.05;;
13580;SDS011;6861;46.170;7.222;2023-09-18T02:19:47;4.72;;;1.95;;
13580;SDS011;6861;46.170;7.222;2023-09-18T02:22:15;4.88;;;1.95;;
13580;SDS011;6861;46.170;7.222;2023-09-18T02:24:43;5.25;;;1.98;;
13580;SDS011;6861;46.170;7.222;2023-09-18T02:27:11;5.97;;;2.30;;
13580;SDS011;6861;46.170;7.222;2023-09-18T02:29:42;7.82;;;2.30;;
13580;SDS011;6861;46.170;7.222;2023-09-18T02:32:12;7.22;;;2.15;;
13580;SDS011;6861;46.170;7.222;2023-09-18T02:34:40;6.05;;;2.22;;
13580;SDS011;6861;46.170;7.222;2023-09-18T02:37:08;5.47;;;2.13;;
13580;SDS011;6861;46.170;7.222;2023-09-18T02:39:36;9.00;;;2.10;;
13580;SDS011;6861;46.170;7.222;2023-09-18T02:42:04;7.93;;;2.50;;
13580;SDS011;6861;46.170;7.222;2023-09-18T02:44:32;5.60;;;2.20;;
13580;SDS011;6861;46.170;7.222;2023-09-18T02:47:00;7.78;;;2.10;;
13580;SDS011;6861;46.170;7.222;2023-09-18T02:49:30;5.47;;;2.33;;
13580;SDS011;6861;46.170;7.222;2023-09-18T02:51:59;5.68;;;2.22;;
13580;SDS011;6861;46.170;7.222;2023-09-18T02:54:27;7.68;;;2.30;;
13580;SDS011;6861;46.170;7.222;2023-09-18T02:56:55;11.38;;;2.30;;
13580;SDS011;6861;46.170;7.222;2023-09-18T02:59:23;5.80;;;1.90;;
13580;SDS011;6861;46.170;7.222;2023-09-18T03:01:53;6.18;;;1.98;;
13580;SDS011;6861;46.170;7.222;2023-09-18T03:04:21;5.97;;;2.10;;
13580;SDS011;6861;46.170;7.222;2023-09-18T03:06:50;6.75;;;2.00;;
13580;SDS011;6861;46.170;7.222;2023-09-18T03:09:19;7.20;;;2.15;;
13580;SDS011;6861;46.170;7.222;2023-09-18T03:11:48;4.72;;;1.90;;
13580;SDS011;6861;46.170;7.222;2023-09-18T03:14:16;5.22;;;2.10;;
13580;SDS011;6861;46.170;7.222;2023-09-18T03:16:44;6.65;;;2.50;;
13580;SDS011;6861;46.170;7.222;2023-09-18T03:19:12;4.72;;;2.05;;
13580;SDS011;6861;46.170;7.222;2023-09-18T03:21:40;5.78;;;1.98;;
13580;SDS011;6861;46.170;7.222;2023-09-18T03:24:09;10.25;;;2.28;;
13580;SDS011;6861;46.170;7.222;2023-09-18T03:26:37;7.50;;;2.30;;
13580;SDS011;6861;46.170;7.222;2023-09-18T03:29:05;7.50;;;2.10;;
13580;SDS011;6861;46.170;7.222;2023-09-18T03:31:33;7.20;;;2.05;;
13580;SDS011;6861;46.170;7.222;2023-09-18T03:34:02;4.47;;;1.80;;
13580;SDS011;6861;46.170;7.222;2023-09-18T03:36:30;5.10;;;2.55;;
13580;SDS011;6861;46.170;7.222;2023-09-18T03:38:58;6.13;;;2.13;;
13580;SDS011;6861;46.170;7.222;2023-09-18T03:41:27;4.82;;;2.03;;
13580;SDS011;6861;46.170;7.222;2023-09-18T03:44:00;6.25;;;2.20;;
13580;SDS011;6861;46.170;7.222;2023-09-18T03:46:29;7.22;;;2.45;;
13580;SDS011;6861;46.170;7.222;2023-09-18T03:48:58;6.55;;;2.20;;
13580;SDS011;6861;46.170;7.222;2023-09-18T03:51:26;6.40;;;2.22;;
13580;SDS011;6861;46.170;7.222;2023-09-18T03:53:55;8.25;;;2.35;;
13580;SDS011;6861;46.170;7.222;2023-09-18T03:56:23;8.98;;;3.28;;
13580;SDS011;6861;46.170;7.222;2023-09-18T03:58:53;9.43;;;3.42;;
13580;SDS011;6861;46.170;7.222;2023-09-18T04:01:21;10.07;;;3.30;;
13580;SDS011;6861;46.170;7.222;2023-09-18T04:03:50;12.10;;;3.63;;
13580;SDS011;6861;46.170;7.222;2023-09-18T04:06:20;9.05;;;2.47;;
13580;SDS011;6861;46.170;7.222;2023-09-18T04:08:50;8.55;;;2.42;;
13580;SDS011;6861;46.170;7.222;2023-09-18T04:11:19;6.88;;;2.10;;
13580;SDS011;6861;46.170;7.222;2023-09-18T04:13:53;5.53;;;2.45;;
13580;SDS011;6861;46.170;7.222;2023-09-18T04:16:21;8.77;;;2.45;;
13580;SDS011;6861;46.170;7.222;2023-09-18T04:18:49;6.95;;;2.30;;
13580;SDS011;6861;46.170;7.222;2023-09-18T04:21:17;6.72;;;2.42;;
13580;SDS011;6861;46.170;7.222;2023-09-18T04:23:45;9.27;;;2.25;;
13580;SDS011;6861;46.170;7.222;2023-09-18T04:26:13;5.72;;;2.35;;
13580;SDS011;6861;46.170;7.222;2023-09-18T04:28:42;7.22;;;2.45;;
13580;SDS011;6861;46.170;7.222;2023-09-18T04:31:12;8.07;;;2.20;;
13580;SDS011;6861;46.170;7.222;2023-09-18T04:33:40;4.68;;;1.80;;
13580;SDS011;6861;46.170;7.222;2023-09-18T04:36:08;8.30;;;1.80;;
13580;SDS011;6861;46.170;7.222;2023-09-18T04:38:36;6.00;;;1.83;;
13580;SDS011;6861;46.170;7.222;2023-09-18T04:41:04;4.53;;;1.80;;
13580;SDS011;6861;46.170;7.222;2023-09-18T04:43:33;4.90;;;1.80;;
13580;SDS011;6861;46.170;7.222;2023-09-18T04:46:02;4.45;;;2.00;;
13580;SDS011;6861;46.170;7.222;2023-09-18T04:48:34;5.95;;;2.22;;
13580;SDS011;6861;46.170;7.222;2023-09-18T04:51:03;6.80;;;2.10;;
13580;SDS011;6861;46.170;7.222;2023-09-18T04:53:31;6.13;;;2.00;;
13580;SDS011;6861;46.170;7.222;2023-09-18T04:56:00;7.60;;;2.50;;
13580;SDS011;6861;46.170;7.222;2023-09-18T04:58:30;6.72;;;2.10;;
13580;SDS011;6861;46.170;7.222;2023-09-18T05:00:58;7.93;;;2.28;;
13580;SDS011;6861;46.170;7.222;2023-09-18T05:03:27;5.70;;;2.20;;
13580;SDS011;6861;46.170;7.222;2023-09-18T05:05:57;7.03;;;2.13;;
13580;SDS011;6861;46.170;7.222;2023-09-18T05:08:26;5.75;;;2.10;;
13580;SDS011;6861;46.170;7.222;2023-09-18T05:10:54;6.32;;;2.35;;
13580;SDS011;6861;46.170;7.222;2023-09-18T05:13:23;7.43;;;2.13;;
13580;SDS011;6861;46.170;7.222;2023-09-18T05:15:52;6.88;;;2.60;;
13580;SDS011;6861;46.170;7.222;2023-09-18T05:18:20;5.78;;;2.30;;
13580;SDS011;6861;46.170;7.222;2023-09-18T05:20:48;6.80;;;2.30;;
13580;SDS011;6861;46.170;7.222;2023-09-18T05:23:17;6.25;;;2.45;;
13580;SDS011;6861;46.170;7.222;2023-09-18T05:25:45;6.82;;;2.40;;
13580;SDS011;6861;46.170;7.222;2023-09-18T05:28:14;5.30;;;2.67;;
13580;SDS011;6861;46.170;7.222;2023-09-18T05:30:42;10.50;;;2.80;;
13580;SDS011;6861;46.170;7.222;2023-09-18T05:33:10;6.30;;;2.28;;
13580;SDS011;6861;46.170;7.222;2023-09-18T05:35:39;5.70;;;2.20;;
13580;SDS011;6861;46.170;7.222;2023-09-18T05:38:09;9.32;;;2.10;;
13580;SDS011;6861;46.170;7.222;2023-09-18T05:40:41;74.70;;;7.28;;
13580;SDS011;6861;46.170;7.222;2023-09-18T05:43:10;7.70;;;2.30;;
13580;SDS011;6861;46.170;7.222;2023-09-18T05:45:38;7.53;;;2.17;;
13580;SDS011;6861;46.170;7.222;2023-09-18T05:48:06;6.05;;;2.22;;
13580;SDS011;6861;46.170;7.222;2023-09-18T05:50:35;8.20;;;2.55;;
13580;SDS011;6861;46.170;7.222;2023-09-18T05:53:04;18.33;;;3.22;;
13580;SDS011;6861;46.170;7.222;2023-09-18T05:55:32;14.65;;;3.28;;
13580;SDS011;6861;46.170;7.222;2023-09-18T05:58:03;11.75;;;2.70;;
13580;SDS011;6861;46.170;7.222;2023-09-18T06:00:33;19.63;;;3.22;;
13580;SDS011;6861;46.170;7.222;2023-09-18T06:03:01;7.70;;;2.30;;
13580;SDS011;6861;46.170;7.222;2023-09-18T06:05:32;7.55;;;2.30;;
13580;SDS011;6861;46.170;7.222;2023-09-18T06:08:01;5.68;;;2.30;;
13580;SDS011;6861;46.170;7.222;2023-09-18T06:10:29;9.02;;;2.78;;
13580;SDS011;6861;46.170;7.222;2023-09-18T06:12:57;8.23;;;2.58;;
13580;SDS011;6861;46.170;7.222;2023-09-18T06:15:32;7.22;;;2.10;;
13580;SDS011;6861;46.170;7.222;2023-09-18T06:18:00;9.65;;;2.50;;
13580;SDS011;6861;46.170;7.222;2023-09-18T06:20:30;8.82;;;2.50;;
13580;SDS011;6861;46.170;7.222;2023-09-18T06:22:58;23.40;;;2.90;;
13580;SDS011;6861;46.170;7.222;2023-09-18T06:25:26;21.20;;;2.90;;
13580;SDS011;6861;46.170;7.222;2023-09-18T06:27:54;10.73;;;2.58;;
13580;SDS011;6861;46.170;7.222;2023-09-18T06:30:22;10.60;;;2.90;;
13580;SDS011;6861;46.170;7.222;2023-09-18T06:32:52;6.20;;;2.40;;
13580;SDS011;6861;46.170;7.222;2023-09-18T06:35:20;10.40;;;2.63;;
13580;SDS011;6861;46.170;7.222;2023-09-18T06:37:48;10.35;;;3.38;;
13580;SDS011;6861;46.170;7.222;2023-09-18T06:40:17;22.15;;;4.53;;
13580;SDS011;6861;46.170;7.222;2023-09-18T06:42:45;27.52;;;4.70;;
13580;SDS011;6861;46.170;7.222;2023-09-18T06:45:13;89.07;;;9.68;;
13580;SDS011;6861;46.170;7.222;2023-09-18T06:47:41;46.17;;;6.97;;
13580;SDS011;6861;46.170;7.222;2023-09-18T06:50:11;19.83;;;3.35;;
13580;SDS011;6861;46.170;7.222;2023-09-18T06:52:39;8.80;;;2.70;;
13580;SDS011;6861;46.170;7.222;2023-09-18T06:55:08;10.02;;;2.65;;
13580;SDS011;6861;46.170;7.222;2023-09-18T06:57:36;10.15;;;2.92;;
13580;SDS011;6861;46.170;7.222;2023-09-18T07:00:05;8.52;;;2.90;;
13580;SDS011;6861;46.170;7.222;2023-09-18T07:02:34;7.60;;;2.50;;
13580;SDS011;6861;46.170;7.222;2023-09-18T07:05:03;7.28;;;2.92;;
13580;SDS011;6861;46.170;7.222;2023-09-18T07:07:33;9.60;;;2.50;;
13580;SDS011;6861;46.170;7.222;2023-09-18T07:10:01;7.18;;;2.50;;
13580;SDS011;6861;46.170;7.222;2023-09-18T07:12:31;9.43;;;2.50;;
13580;SDS011;6861;46.170;7.222;2023-09-18T07:15:00;13.07;;;2.85;;
13580;SDS011;6861;46.170;7.222;2023-09-18T07:17:31;10.45;;;2.50;;
13580;SDS011;6861;46.170;7.222;2023-09-18T07:19:59;12.95;;;2.63;;
13580;SDS011;6861;46.170;7.222;2023-09-18T07:22:30;7.80;;;2.38;;
13580;SDS011;6861;46.170;7.222;2023-09-18T07:24:59;9.95;;;2.00;;
13580;SDS011;6861;46.170;7.222;2023-09-18T07:27:27;5.05;;;1.90;;
13580;SDS011;6861;46.170;7.222;2023-09-18T07:29:55;5.65;;;1.55;;
13580;SDS011;6861;46.170;7.222;2023-09-18T07:32:24;7.97;;;1.80;;
13580;SDS011;6861;46.170;7.222;2023-09-18T07:35:04;2.42;;;1.40;;
13580;SDS011;6861;46.170;7.222;2023-09-18T07:37:34;3.85;;;1.05;;
13580;SDS011;6861;46.170;7.222;2023-09-18T07:40:05;5.50;;;1.33;;
13580;SDS011;6861;46.170;7.222;2023-09-18T07:42:34;2.97;;;1.15;;
13580;SDS011;6861;46.170;7.222;2023-09-18T07:45:03;2.78;;;1.10;;
13580;SDS011;6861;46.170;7.222;2023-09-18T07:47:31;3.05;;;0.88;;
13580;SDS011;6861;46.170;7.222;2023-09-18T07:50:00;2.28;;;1.10;;
13580;SDS011;6861;46.170;7.222;2023-09-18T07:52:28;6.38;;;1.30;;
13580;SDS011;6861;46.170;7.222;2023-09-18T07:54:58;4.90;;;1.30;;
13580;SDS011;6861;46.170;7.222;2023-09-18T07:57:27;3.58;;;1.20;;
13580;SDS011;6861;46.170;7.222;2023-09-18T07:59:58;3.53;;;1.20;;
13580;SDS011;6861;46.170;7.222;2023-09-18T08:02:28;2.78;;;1.10;;
13580;SDS011;6861;46.170;7.222;2023-09-18T08:04:58;4.20;;;1.10;;
13580;SDS011;6861;46.170;7.222;2023-09-18T08:07:26;3.88;;;1.13;;
13580;SDS011;6861;46.170;7.222;2023-09-18T08:09:54;3.13;;;1.20;;
13580;SDS011;6861;46.170;7.222;2023-09-18T08:12:22;3.80;;;1.05;;
13580;SDS011;6861;46.170;7.222;2023-09-18T08:14:52;2.47;;;1.10;;
13580;SDS011;6861;46.170;7.222;2023-09-18T08:17:21;3.70;;;1.20;;
13580;SDS011;6861;46.170;7.222;2023-09-18T08:19:50;2.70;;;1.13;;
13580;SDS011;6861;46.170;7.222;2023-09-18T08:22:18;2.55;;;0.80;;
13580;SDS011;6861;46.170;7.222;2023-09-18T08:24:47;3.15;;;0.98;;
13580;SDS011;6861;46.170;7.222;2023-09-18T08:27:17;1.80;;;0.80;;
13580;SDS011;6861;46.170;7.222;2023-09-18T08:29:45;1.98;;;0.90;;
13580;SDS011;6861;46.170;7.222;2023-09-18T08:32:15;2.63;;;0.82;;
13580;SDS011;6861;46.170;7.222;2023-09-18T08:34:43;4.65;;;1.10;;
13580;SDS011;6861;46.170;7.222;2023-09-18T08:37:11;12.52;;;1.90;;
13580;SDS011;6861;46.170;7.222;2023-09-18T08:39:39;9.10;;;1.80;;
13580;SDS011;6861;46.170;7.222;2023-09-18T08:42:07;3.08;;;1.08;;
13580;SDS011;6861;46.170;7.222;2023-09-18T08:44:38;2.55;;;0.95;;
13580;SDS011;6861;46.170;7.222;2023-09-18T08:47:09;23.20;;;2.42;;
13580;SDS011;6861;46.170;7.222;2023-09-18T08:49:42;20.35;;;2.60;;
13580;SDS011;6861;46.170;7.222;2023-09-18T08:52:11;6.30;;;1.17;;
13580;SDS011;6861;46.170;7.222;2023-09-18T08:54:41;20.00;;;2.72;;
13580;SDS011;6861;46.170;7.222;2023-09-18T08:57:10;11.13;;;1.20;;
13580;SDS011;6861;46.170;7.222;2023-09-18T08:59:39;3.83;;;1.10;;
13580;SDS011;6861;46.170;7.222;2023-09-18T09:02:07;16.10;;;1.95;;
13580;SDS011;6861;46.170;7.222;2023-09-18T09:04:38;13.02;;;1.92;;
13580;SDS011;6861;46.170;7.222;2023-09-18T09:07:07;15.18;;;2.22;;
13580;SDS011;6861;46.170;7.222;2023-09-18T09:09:36;1.60;;;0.65;;
13580;SDS011;6861;46.170;7.222;2023-09-18T09:12:05;5.30;;;1.13;;
13580;SDS011;6861;46.170;7.222;2023-09-18T09:14:33;3.22;;;0.93;;
13580;SDS011;6861;46.170;7.222;2023-09-18T09:17:03;1.55;;;0.90;;
13580;SDS011;6861;46.170;7.222;2023-09-18T09:19:31;2.63;;;0.80;;
13580;SDS011;6861;46.170;7.222;2023-09-18T09:22:03;2.85;;;0.75;;
13580;SDS011;6861;46.170;7.222;2023-09-18T09:24:39;3.65;;;1.00;;
13580;SDS011;6861;46.170;7.222;2023-09-18T09:27:08;2.38;;;0.90;;
13580;SDS011;6861;46.170;7.222;2023-09-18T09:29:37;2.30;;;1.13;;
13580;SDS011;6861;46.170;7.222;2023-09-18T09:32:14;3.78;;;1.00;;
13580;SDS011;6861;46.170;7.222;2023-09-18T09:34:44;2.95;;;0.90;;
13580;SDS011;6861;46.170;7.222;2023-09-18T09:37:13;3.47;;;0.95;;
13580;SDS011;6861;46.170;7.222;2023-09-18T09:39:50;1.42;;;0.70;;
13580;SDS011;6861;46.170;7.222;2023-09-18T09:42:19;4.05;;;0.93;;
13580;SDS011;6861;46.170;7.222;2023-09-18T09:45:00;4.43;;;0.90;;
13580;SDS011;6861;46.170;7.222;2023-09-18T09:47:32;2.38;;;1.02;;
13580;SDS011;6861;46.170;7.222;2023-09-18T09:50:08;3.83;;;1.45;;
13580;SDS011;6861;46.170;7.222;2023-09-18T09:52:41;5.13;;;1.60;;
13580;SDS011;6861;46.170;7.222;2023-09-18T09:55:25;1.83;;;0.90;;
13580;SDS011;6861;46.170;7.222;2023-09-18T09:57:55;4.32;;;1.30;;
13580;SDS011;6861;46.170;7.222;2023-09-18T10:00:27;2.53;;;0.75;;
13580;SDS011;6861;46.170;7.222;2023-09-18T10:03:00;2.58;;;0.70;;
13580;SDS011;6861;46.170;7.222;2023-09-18T10:05:30;3.97;;;1.00;;
13580;SDS011;6861;46.170;7.222;2023-09-18T10:08:02;2.70;;;1.15;;
13580;SDS011;6861;46.170;7.222;2023-09-18T10:10:37;1.13;;;0.60;;
13580;SDS011;6861;46.170;7.222;2023-09-18T10:13:09;2.25;;;0.63;;
13580;SDS011;6861;46.170;7.222;2023-09-18T10:15:39;1.70;;;0.70;;
13580;SDS011;6861;46.170;7.222;2023-09-18T10:20:56;1.88;;;0.77;;
13580;SDS011;6861;46.170;7.222;2023-09-18T10:23:38;2.55;;;0.70;;
13580;SDS011;6861;46.170;7.222;2023-09-18T10:26:22;1.15;;;0.68;;
13580;SDS011;6861;46.170;7.222;2023-09-18T10:28:52;2.53;;;0.70;;
13580;SDS011;6861;46.170;7.222;2023-09-18T10:31:26;1.33;;;0.60;;
13580;SDS011;6861;46.170;7.222;2023-09-18T10:33:55;2.35;;;0.60;;
13580;SDS011;6861;46.170;7.222;2023-09-18T10:36:25;2.00;;;0.82;;
13580;SDS011;6861;46.170;7.222;2023-09-18T10:38:54;1.88;;;0.77;;
13580;SDS011;6861;46.170;7.222;2023-09-18T10:41:25;5.28;;;0.80;;
13580;SDS011;6861;46.170;7.222;2023-09-18T10:43:54;1.35;;;0.50;;
13580;SDS011;6861;46.170;7.222;2023-09-18T10:46:25;1.40;;;0.60;;
13580;SDS011;6861;46.170;7.222;2023-09-18T10:48:54;1.48;;;0.60;;
13580;SDS011;6861;46.170;7.222;2023-09-18T10:51:23;2.15;;;0.98;;
13580;SDS011;6861;46.170;7.222;2023-09-18T10:53:52;3.63;;;1.00;;
13580;SDS011;6861;46.170;7.222;2023-09-18T10:56:20;1.52;;;0.52;;
13580;SDS011;6861;46.170;7.222;2023-09-18T10:58:56;1.80;;;0.65;;
13580;SDS011;6861;46.170;7.222;2023-09-18T11:01:27;1.95;;;0.70;;
13580;SDS011;6861;46.170;7.222;2023-09-18T11:03:57;0.85;;;0.52;;
13580;SDS011;6861;46.170;7.222;2023-09-18T11:06:28;2.38;;;0.80;;
13580;SDS011;6861;46.170;7.222;2023-09-18T11:09:00;1.85;;;0.82;;
13580;SDS011;6861;46.170;7.222;2023-09-18T11:11:31;2.00;;;0.98;;
13580;SDS011;6861;46.170;7.222;2023-09-18T11:14:03;1.63;;;0.80;;
13580;SDS011;6861;46.170;7.222;2023-09-18T11:16:38;4.13;;;0.85;;
13580;SDS011;6861;46.170;7.222;2023-09-18T11:19:08;5.95;;;0.90;;
13580;SDS011;6861;46.170;7.222;2023-09-18T11:21:38;2.92;;;0.88;;
13580;SDS011;6861;46.170;7.222;2023-09-18T11:24:15;3.05;;;0.90;;
13580;SDS011;6861;46.170;7.222;2023-09-18T11:26:45;2.97;;;0.75;;
13580;SDS011;6861;46.170;7.222;2023-09-18T11:29:17;1.52;;;0.70;;
13580;SDS011;6861;46.170;7.222;2023-09-18T11:31:50;1.23;;;0.70;;
13580;SDS011;6861;46.170;7.222;2023-09-18T11:34:21;3.10;;;0.73;;
13580;SDS011;6861;46.170;7.222;2023-09-18T11:36:49;1.95;;;0.57;;
13580;SDS011;6861;46.170;7.222;2023-09-18T11:42:09;4.10;;;1.00;;
13580;SDS011;6861;46.170;7.222;2023-09-18T11:44:39;1.70;;;0.88;;
13580;SDS011;6861;46.170;7.222;2023-09-18T11:47:14;3.80;;;0.95;;
13580;SDS011;6861;46.170;7.222;2023-09-18T11:49:49;1.35;;;0.93;;
13580;SDS011;6861;46.170;7.222;2023-09-18T11:52:21;1.70;;;0.70;;
13580;SDS011;6861;46.170;7.222;2023-09-18T11:54:51;3.00;;;0.80;;
13580;SDS011;6861;46.170;7.222;2023-09-18T11:57:21;1.13;;;0.60;;
13580;SDS011;6861;46.170;7.222;2023-09-18T11:59:51;1.10;;;0.70;;
13580;SDS011;6861;46.170;7.222;2023-09-18T12:02:25;1.88;;;0.77;;
13580;SDS011;6861;46.170;7.222;2023-09-18T12:05:09;2.83;;;0.80;;
13580;SDS011;6861;46.170;7.222;2023-09-18T12:07:38;2.03;;;0.85;;
13580;SDS011;6861;46.170;7.222;2023-09-18T12:10:08;1.30;;;0.80;;
13580;SDS011;6861;46.170;7.222;2023-09-18T12:12:37;1.67;;;0.70;;
13580;SDS011;6861;46.170;7.222;2023-09-18T12:15:08;1.75;;;0.90;;
13580;SDS011;6861;46.170;7.222;2023-09-18T12:17:39;2.78;;;0.85;;
13580;SDS011;6861;46.170;7.222;2023-09-18T12:20:14;1.60;;;0.70;;
13580;SDS011;6861;46.170;7.222;2023-09-18T12:22:47;2.25;;;1.00;;
13580;SDS011;6861;46.170;7.222;2023-09-18T12:25:16;2.80;;;1.10;;
13580;SDS011;6861;46.170;7.222;2023-09-18T12:27:45;2.65;;;0.85;;
13580;SDS011;6861;46.170;7.222;2023-09-18T12:30:15;1.73;;;0.80;;
13580;SDS011;6861;46.170;7.222;2023-09-18T12:32:47;3.58;;;1.10;;
13580;SDS011;6861;46.170;7.222;2023-09-18T12:35:16;3.83;;;1.13;;
13580;SDS011;6861;46.170;7.222;2023-09-18T12:37:45;2.85;;;1.02;;
13580;SDS011;6861;46.170;7.222;2023-09-18T12:40:23;2.30;;;1.13;;
13580;SDS011;6861;46.170;7.222;2023-09-18T12:42:51;2.30;;;1.10;;
13580;SDS011;6861;46.170;7.222;2023-09-18T12:45:22;3.03;;;1.00;;
13580;SDS011;6861;46.170;7.222;2023-09-18T12:47:53;2.65;;;0.80;;
13580;SDS011;6861;46.170;7.222;2023-09-18T12:50:24;1.83;;;0.80;;
13580;SDS011;6861;46.170;7.222;2023-09-18T12:52:52;1.27;;;0.70;;
13580;SDS011;6861;46.170;7.222;2023-09-18T12:55:21;1.80;;;0.70;;
13580;SDS011;6861;46.170;7.222;2023-09-18T12:57:51;1.52;;;0.75;;
13580;SDS011;6861;46.170;7.222;2023-09-18T13:00:20;1.90;;;0.68;;
13580;SDS011;6861;46.170;7.222;2023-09-18T13:02:51;2.05;;;0.70;;
13580;SDS011;6861;46.170;7.222;2023-09-18T13:05:22;2.33;;;0.73;;
13580;SDS011;6861;46.170;7.222;2023-09-18T13:07:53;1.92;;;0.70;;
13580;SDS011;6861;46.170;7.222;2023-09-18T13:10:22;0.93;;;0.60;;
13580;SDS011;6861;46.170;7.222;2023-09-18T13:12:54;1.60;;;0.70;;
13580;SDS011;6861;46.170;7.222;2023-09-18T13:15:24;1.67;;;0.75;;
13580;SDS011;6861;46.170;7.222;2023-09-18T13:17:57;2.35;;;0.70;;
13580;SDS011;6861;46.170;7.222;2023-09-18T13:20:27;1.10;;;0.60;;
13580;SDS011;6861;46.170;7.222;2023-09-18T13:22:58;2.90;;;0.98;;
13580;SDS011;6861;46.170;7.222;2023-09-18T13:25:30;1.55;;;1.00;;
13580;SDS011;6861;46.170;7.222;2023-09-18T13:28:01;1.33;;;0.93;;
13580;SDS011;6861;46.170;7.222;2023-09-18T13:30:31;2.13;;;1.02;;
13580;SDS011;6861;46.170;7.222;2023-09-18T13:33:06;1.13;;;0.75;;
13580;SDS011;6861;46.170;7.222;2023-09-18T13:35:36;4.25;;;0.95;;
13580;SDS011;6861;46.170;7.222;2023-09-18T13:38:07;3.13;;;1.00;;
13580;SDS011;6861;46.170;7.222;2023-09-18T13:40:37;1.77;;;0.90;;
13580;SDS011;6861;46.170;7.222;2023-09-18T13:43:07;3.72;;;1.00;;
13580;SDS011;6861;46.170;7.222;2023-09-18T13:45:37;1.17;;;0.60;;
13580;SDS011;6861;46.170;7.222;2023-09-18T13:48:07;1.30;;;0.90;;
13580;SDS011;6861;46.170;7.222;2023-09-18T13:50:36;2.13;;;0.80;;
13580;SDS011;6861;46.170;7.222;2023-09-18T13:53:04;1.52;;;0.88;;
13580;SDS011;6861;46.170;7.222;2023-09-18T13:55:33;1.85;;;0.88;;
13580;SDS011;6861;46.170;7.222;2023-09-18T13:58:02;4.20;;;0.80;;
13580;SDS011;6861;46.170;7.222;2023-09-18T14:00:31;1.60;;;0.80;;
13580;SDS011;6861;46.170;7.222;2023-09-18T14:02:59;2.67;;;0.90;;
13580;SDS011;6861;46.170;7.222;2023-09-18T14:05:31;1.58;;;0.93;;
13580;SDS011;6861;46.170;7.222;2023-09-18T14:08:00;3.95;;;0.85;;
13580;SDS011;6861;46.170;7.222;2023-09-18T14:10:29;2.30;;;1.10;;
13580;SDS011;6861;46.170;7.222;2023-09-18T14:12:57;2.55;;;1.00;;
13580;SDS011;6861;46.170;7.222;2023-09-18T14:15:25;2.03;;;1.30;;
13580;SDS011;6861;46.170;7.222;2023-09-18T14:17:55;2.47;;;1.25;;
13580;SDS011;6861;46.170;7.222;2023-09-18T14:20:24;3.25;;;1.10;;
13580;SDS011;6861;46.170;7.222;2023-09-18T14:22:53;3.72;;;1.00;;
13580;SDS011;6861;46.170;7.222;2023-09-18T14:25:21;3.50;;;1.10;;
13580;SDS011;6861;46.170;7.222;2023-09-18T14:27:49;2.10;;;1.15;;
13580;SDS011;6861;46.170;7.222;2023-09-18T14:30:18;5.35;;;1.30;;
13580;SDS011;6861;46.170;7.222;2023-09-18T14:32:46;5.05;;;1.02;;
13580;SDS011;6861;46.170;7.222;2023-09-18T14:35:14;3.28;;;1.00;;
13580;SDS011;6861;46.170;7.222;2023-09-18T14:37:43;3.53;;;1.05;;
13580;SDS011;6861;46.170;7.222;2023-09-18T14:40:12;2.67;;;1.05;;
13580;SDS011;6861;46.170;7.222;2023-09-18T14:42:41;1.75;;;1.10;;
13580;SDS011;6861;46.170;7.222;2023-09-18T14:45:09;3.75;;;1.00;;
13580;SDS011;6861;46.170;7.222;2023-09-18T14:47:39;4.93;;;1.05;;
13580;SDS011;6861;46.170;7.222;2023-09-18T14:50:07;2.78;;;0.88;;
13580;SDS011;6861;46.170;7.222;2023-09-18T14:52:36;1.67;;;0.90;;
13580;SDS011;6861;46.170;7.222;2023-09-18T14:55:04;1.35;;;0.90;;
13580;SDS011;6861;46.170;7.222;2023-09-18T14:57:34;2.45;;;0.90;;
13580;SDS011;6861;46.170;7.222;2023-09-18T15:00:02;2.13;;;0.98;;
13580;SDS011;6861;46.170;7.222;2023-09-18T15:02:32;2.05;;;0.85;;
13580;SDS011;6861;46.170;7.222;2023-09-18T15:05:01;2.97;;;0.80;;
13580;SDS011;6861;46.170;7.222;2023-09-18T15:07:32;2.80;;;0.80;;
13580;SDS011;6861;46.170;7.222;2023-09-18T15:10:00;1.23;;;0.80;;
13580;SDS011;6861;46.170;7.222;2023-09-18T15:12:31;1.23;;;0.68;;
13580;SDS011;6861;46.170;7.222;2023-09-18T15:15:01;2.30;;;0.70;;
13580;SDS011;6861;46.170;7.222;2023-09-18T15:17:29;1.80;;;0.90;;
13580;SDS011;6861;46.170;7.222;2023-09-18T15:19:59;1.77;;;0.95;;